createdAt,value
2022-11-10T00:00:18.080Z,95.53
2022-11-10T00:01:18.060Z,95.94
2022-11-10T00:02:18.054Z,95.84
2022-11-10T00:03:18.139Z,95.32
2022-11-10T00:04:18.921Z,95.73
2022-11-10T00:05:18.019Z,96.55
2022-11-10T00:06:18.010Z,96.70
2022-11-10T00:07:18.015Z,97.21
2022-11-10T00:08:17.991Z,96.34
2022-11-10T00:09:17.993Z,97.27
2022-11-10T00:10:17.972Z,97.06
2022-11-10T00:11:17.949Z,96.66
2022-11-10T00:12:17.951Z,96.25
2022-11-10T00:13:17.931Z,96.25
2022-11-10T00:14:17.920Z,95.84
2022-11-10T00:15:17.950Z,96.14
2022-11-10T00:16:17.902Z,96.45
2022-11-10T00:17:17.892Z,96.25
2022-11-10T00:18:17.873Z,95.63
2022-11-10T00:19:17.861Z,95.73
2022-11-10T00:20:17.852Z,96.45
2022-11-10T00:21:17.851Z,96.55
2022-11-10T00:22:17.833Z,96.86
2022-11-10T00:23:17.827Z,97.37
2022-11-10T00:24:17.801Z,97.67
2022-11-10T00:25:17.790Z,97.63
2022-11-10T00:26:24.855Z,97.42
2022-11-10T00:27:17.775Z,97.22
2022-11-10T00:28:17.765Z,97.02
2022-11-10T00:29:17.745Z,96.20
2022-11-10T00:30:17.744Z,95.38
2022-11-10T00:31:17.724Z,95.18
2022-11-10T00:32:17.745Z,94.56
2022-11-10T00:33:17.706Z,94.60
2022-11-10T00:34:17.696Z,94.60
2022-11-10T00:35:17.684Z,94.92
2022-11-10T00:36:17.675Z,95.84
2022-11-10T00:37:17.654Z,96.75
2022-11-10T00:38:17.674Z,96.45
2022-11-10T00:39:17.634Z,96.45
2022-11-10T00:40:17.633Z,97.16
2022-11-10T00:41:17.614Z,96.55
2022-11-10T00:42:17.604Z,97.06
2022-11-10T00:43:21.238Z,96.86
2022-11-10T00:44:18.613Z,97.78
2022-11-10T00:45:17.564Z,98.60
2022-11-10T00:46:17.564Z,98.49
2022-11-10T00:47:17.544Z,98.29
2022-11-10T00:48:17.536Z,98.08
2022-11-10T00:49:17.555Z,98.49
2022-11-10T00:50:17.535Z,98.70
2022-11-10T00:51:17.504Z,99.01
2022-11-10T00:52:17.505Z,99.37
2022-11-10T00:53:17.479Z,99.27
2022-11-10T00:54:17.474Z,99.27
2022-11-10T00:55:17.455Z,98.35
2022-11-10T00:56:17.473Z,98.50
2022-11-10T00:57:17.436Z,98.20
2022-11-10T00:58:17.425Z,97.79
2022-11-10T00:59:17.405Z,98.10
2022-11-10T01:00:17.403Z,97.89
2022-11-10T01:01:17.422Z,98.14
2022-11-10T01:02:17.395Z,98.55
2022-11-10T01:03:17.365Z,98.10
2022-11-10T01:04:17.357Z,98.04
2022-11-10T01:05:17.346Z,98.96
2022-11-10T01:06:17.339Z,98.50
2022-11-10T01:07:17.384Z,98.55
2022-11-10T01:08:17.314Z,98.50
2022-11-10T01:09:17.304Z,98.35
2022-11-10T01:10:17.296Z,97.89
2022-11-10T01:11:17.275Z,97.42
2022-11-10T01:12:17.273Z,97.08
2022-11-10T01:13:17.293Z,96.41
2022-11-10T01:14:17.245Z,96.10
2022-11-10T01:15:17.237Z,95.38
2022-11-10T01:16:17.228Z,95.18
2022-11-10T01:17:17.215Z,95.53
2022-11-10T01:18:17.203Z,96.34
2022-11-10T01:19:17.204Z,97.37
2022-11-10T01:20:17.182Z,97.27
2022-11-10T01:21:17.165Z,97.37
2022-11-10T01:22:17.159Z,97.37
2022-11-10T01:23:17.144Z,97.06
2022-11-10T01:24:17.156Z,97.47
2022-11-10T01:25:17.118Z,97.98
2022-11-10T01:26:17.115Z,98.39
2022-11-10T01:27:17.095Z,98.90
2022-11-10T01:28:17.096Z,98.60
2022-11-10T01:29:17.075Z,98.29
2022-11-10T01:30:17.084Z,98.39
2022-11-10T01:31:17.058Z,98.49
2022-11-10T01:32:17.054Z,98.90
2022-11-10T01:33:17.034Z,98.85
2022-11-10T01:34:17.024Z,99.56
2022-11-10T01:35:17.014Z,99.01
2022-11-10T01:36:17.035Z,98.39
2022-11-10T01:37:16.994Z,98.60
2022-11-10T01:38:16.989Z,98.19
2022-11-10T01:39:16.966Z,98.03
2022-11-10T01:40:16.991Z,99.26
2022-11-10T01:41:16.943Z,99.66
2022-11-10T01:42:16.954Z,99.11
2022-11-10T01:43:16.926Z,98.39
2022-11-10T01:44:16.914Z,98.39
2022-11-10T01:45:16.904Z,98.08
2022-11-10T01:46:16.899Z,98.33
2022-11-10T01:47:16.875Z,97.92
2022-11-10T01:48:16.894Z,99.05
2022-11-10T01:49:16.855Z,99.15
2022-11-10T01:50:16.856Z,98.95
2022-11-10T01:51:16.833Z,98.74
2022-11-10T01:52:16.823Z,98.44
2022-11-10T01:53:16.814Z,98.33
2022-11-10T01:54:16.882Z,98.44
2022-11-10T01:55:16.791Z,99.66
2022-11-10T01:56:16.783Z,99.26
2022-11-10T01:57:16.765Z,99.21
2022-11-10T01:58:16.755Z,99.01
2022-11-10T01:59:16.745Z,99.21
2022-11-10T02:00:16.752Z,98.60
2022-11-10T02:01:16.783Z,98.39
2022-11-10T02:02:16.714Z,99.05
2022-11-10T02:03:16.754Z,99.82
2022-11-10T02:04:16.694Z,99.52
2022-11-10T02:05:16.715Z,99.98
2022-11-10T02:06:16.665Z,99.99
2022-11-10T02:07:16.722Z,99.99
2022-11-10T02:08:16.651Z,99.82
2022-11-10T02:09:16.635Z,99.99
2022-11-10T02:10:16.624Z,99.99
2022-11-10T02:11:16.634Z,99.72
2022-11-10T02:12:16.601Z,99.41
2022-11-10T02:13:16.594Z,99.52
2022-11-10T02:14:16.583Z,99.01
2022-11-10T02:15:16.581Z,98.90
2022-11-10T02:16:16.565Z,98.80
2022-11-10T02:17:16.566Z,99.21
2022-11-10T02:18:16.536Z,99.52
2022-11-10T02:19:16.523Z,99.31
2022-11-10T02:20:16.512Z,98.49
2022-11-10T02:21:16.503Z,99.56
2022-11-10T02:22:16.521Z,99.99
2022-11-10T02:23:16.484Z,99.56
2022-11-10T02:24:16.463Z,99.26
2022-11-10T02:25:16.461Z,98.95
2022-11-10T02:26:16.443Z,98.65
2022-11-10T02:27:16.440Z,99.87
2022-11-10T02:28:16.456Z,99.99
2022-11-10T02:29:16.414Z,99.99
2022-11-10T02:30:16.402Z,99.99
2022-11-10T02:31:16.395Z,99.99
2022-11-10T02:32:16.374Z,99.99
2022-11-10T02:33:16.375Z,99.36
2022-11-10T02:34:16.373Z,99.46
2022-11-10T02:35:16.539Z,98.74
2022-11-10T02:36:16.341Z,98.65
2022-11-10T02:37:16.322Z,99.30
2022-11-10T02:38:16.314Z,99.99
2022-11-10T02:39:16.324Z,99.61
2022-11-10T02:40:16.285Z,99.41
2022-11-10T02:41:16.283Z,99.99
2022-11-10T02:42:16.271Z,99.99
2022-11-10T02:43:16.266Z,99.99
2022-11-10T02:44:16.242Z,99.71
2022-11-10T02:45:16.252Z,99.99
2022-11-10T02:46:16.222Z,99.99
2022-11-10T02:47:16.228Z,99.91
2022-11-10T02:48:16.203Z,99.71
2022-11-10T02:49:16.192Z,99.99
2022-11-10T02:50:16.201Z,99.86
2022-11-10T02:51:16.172Z,99.99
2022-11-10T02:52:16.156Z,99.82
2022-11-10T02:53:16.153Z,99.71
2022-11-10T02:54:16.132Z,99.55
2022-11-10T02:55:16.122Z,99.41
2022-11-10T02:56:16.145Z,99.35
2022-11-10T02:57:16.104Z,99.66
2022-11-10T02:58:16.089Z,99.99
2022-11-10T02:59:16.083Z,99.99
2022-11-10T03:00:16.070Z,99.99
2022-11-10T03:01:16.120Z,99.76
2022-11-10T03:02:16.075Z,99.99
2022-11-10T03:03:16.040Z,99.99
2022-11-10T03:04:16.032Z,99.99
2022-11-10T03:05:16.013Z,99.96
2022-11-10T03:06:16.005Z,99.76
2022-11-10T03:07:16.025Z,99.70
2022-11-10T03:08:15.994Z,99.99
2022-11-10T03:09:15.971Z,99.99
2022-11-10T03:10:15.961Z,99.99
2022-11-10T03:11:15.951Z,99.99
2022-11-10T03:12:15.934Z,99.99
2022-11-10T03:13:15.921Z,99.99
2022-11-10T03:14:15.924Z,99.99
2022-11-10T03:15:15.901Z,99.96
2022-11-10T03:16:15.891Z,99.99
2022-11-10T03:17:15.881Z,99.99
2022-11-10T03:18:15.872Z,99.35
2022-11-10T03:19:15.880Z,99.55
2022-11-10T03:20:15.853Z,99.15
2022-11-10T03:21:15.842Z,99.76
2022-11-10T03:22:15.821Z,99.55
2022-11-10T03:23:15.815Z,99.04
2022-11-10T03:24:15.800Z,98.83
2022-11-10T03:25:15.817Z,98.43
2022-11-10T03:26:15.781Z,98.12
2022-11-10T03:27:15.770Z,97.91
2022-11-10T03:28:15.759Z,98.22
2022-11-10T03:29:15.752Z,98.33
2022-11-10T03:30:15.731Z,98.12
2022-11-10T03:31:15.749Z,98.12
2022-11-10T03:32:15.710Z,98.33
2022-11-10T03:33:15.702Z,98.22
2022-11-10T03:34:15.693Z,99.15
2022-11-10T03:35:15.685Z,98.94
2022-11-10T03:36:15.702Z,99.25
2022-11-10T03:37:15.668Z,98.94
2022-11-10T03:38:15.645Z,98.83
2022-11-10T03:39:15.644Z,98.63
2022-11-10T03:40:15.632Z,98.12
2022-11-10T03:41:20.184Z,97.91
2022-11-10T03:42:16.623Z,98.02
2022-11-10T03:43:15.592Z,98.33
2022-11-10T03:44:15.581Z,97.81
2022-11-10T03:45:15.580Z,97.71
2022-11-10T03:46:15.556Z,97.75
2022-11-10T03:47:15.570Z,98.27
2022-11-10T03:48:15.531Z,97.86
2022-11-10T03:49:15.523Z,98.37
2022-11-10T03:50:15.518Z,98.47
2022-11-10T03:51:15.500Z,98.07
2022-11-10T03:52:15.493Z,97.75
2022-11-10T03:53:15.501Z,97.55
2022-11-10T03:54:15.469Z,98.27
2022-11-10T03:55:15.460Z,98.16
2022-11-10T03:56:15.444Z,98.58
2022-11-10T03:57:15.438Z,98.68
2022-11-10T03:58:15.426Z,99.50
2022-11-10T03:59:15.441Z,99.40
2022-11-10T04:00:15.400Z,99.29
2022-11-10T04:01:15.445Z,99.86
2022-11-10T04:02:15.380Z,99.35
2022-11-10T04:03:15.370Z,98.74
2022-11-10T04:04:15.381Z,98.02
2022-11-10T04:05:15.350Z,98.47
2022-11-10T04:06:15.331Z,98.58
2022-11-10T04:07:15.372Z,98.68
2022-11-10T04:08:15.310Z,99.70
2022-11-10T04:09:15.305Z,99.45
2022-11-10T04:10:15.340Z,98.74
2022-11-10T04:11:15.280Z,99.60
2022-11-10T04:12:16.151Z,99.99
2022-11-10T04:13:15.259Z,99.55
2022-11-10T04:14:15.241Z,99.35
2022-11-10T04:15:15.240Z,99.15
2022-11-10T04:16:15.246Z,99.04
2022-11-10T04:17:15.213Z,98.33
2022-11-10T04:18:15.199Z,97.91
2022-11-10T04:19:15.189Z,97.91
2022-11-10T04:20:15.182Z,96.99
2022-11-10T04:21:15.171Z,97.20
2022-11-10T04:22:15.180Z,97.65
2022-11-10T04:23:15.149Z,98.27
2022-11-10T04:24:15.156Z,98.47
2022-11-10T04:25:15.130Z,98.58
2022-11-10T04:26:15.109Z,98.58
2022-11-10T04:27:15.100Z,98.78
2022-11-10T04:28:15.110Z,98.16
2022-11-10T04:29:15.089Z,98.27
2022-11-10T04:30:15.070Z,98.68
2022-11-10T04:31:15.068Z,98.47
2022-11-10T04:32:15.048Z,98.27
2022-11-10T04:33:15.038Z,98.37
2022-11-10T04:34:15.041Z,98.47
2022-11-10T04:35:15.024Z,98.37
2022-11-10T04:36:14.999Z,98.47
2022-11-10T04:37:14.988Z,98.68
2022-11-10T04:38:14.978Z,98.37
2022-11-10T04:39:14.970Z,98.68
2022-11-10T04:40:14.981Z,99.24
2022-11-10T04:41:14.948Z,99.54
2022-11-10T04:42:14.933Z,99.65
2022-11-10T04:43:14.927Z,99.99
2022-11-10T04:44:14.913Z,99.99
2022-11-10T04:45:14.904Z,99.99
2022-11-10T04:46:14.900Z,99.99
2022-11-10T04:47:14.879Z,99.95
2022-11-10T04:48:14.867Z,99.99
2022-11-10T04:49:14.858Z,99.99
2022-11-10T04:50:14.848Z,99.99
2022-11-10T04:51:14.918Z,99.99
2022-11-10T04:52:14.825Z,99.99
2022-11-10T04:53:14.817Z,99.99
2022-11-10T04:54:14.800Z,99.95
2022-11-10T04:55:14.789Z,99.99
2022-11-10T04:56:14.776Z,99.80
2022-11-10T04:57:14.789Z,99.50
2022-11-10T04:58:14.761Z,99.19
2022-11-10T04:59:14.749Z,98.99
2022-11-10T05:00:14.730Z,98.78
2022-11-10T05:01:14.812Z,99.29
2022-11-10T05:02:14.721Z,99.29
2022-11-10T05:03:14.729Z,99.80
2022-11-10T05:04:14.693Z,99.50
2022-11-10T05:05:14.682Z,99.60
2022-11-10T05:06:14.669Z,99.95
2022-11-10T05:07:14.720Z,99.99
2022-11-10T05:08:14.680Z,99.99
2022-11-10T05:09:14.639Z,99.70
2022-11-10T05:10:14.620Z,99.19
2022-11-10T05:11:14.619Z,99.19
2022-11-10T05:12:18.507Z,98.99
2022-11-10T05:13:15.617Z,99.80
2022-11-10T05:14:14.579Z,99.60
2022-11-10T05:15:14.575Z,98.78
2022-11-10T05:16:14.558Z,98.78
2022-11-10T05:17:14.549Z,99.09
2022-11-10T05:18:14.540Z,98.74
2022-11-10T05:19:14.539Z,98.37
2022-11-10T05:20:14.510Z,98.37
2022-11-10T05:21:14.507Z,98.78
2022-11-10T05:22:14.490Z,98.47
2022-11-10T05:23:14.478Z,98.16
2022-11-10T05:24:14.490Z,98.22
2022-11-10T05:25:14.459Z,97.96
2022-11-10T05:26:14.450Z,98.27
2022-11-10T05:27:14.440Z,98.37
2022-11-10T05:28:14.421Z,98.02
2022-11-10T05:29:14.423Z,97.30
2022-11-10T05:30:14.490Z,97.09
2022-11-10T05:31:14.389Z,96.69
2022-11-10T05:32:14.379Z,97.30
2022-11-10T05:33:14.371Z,97.09
2022-11-10T05:34:14.356Z,97.09
2022-11-10T05:35:14.347Z,97.09
2022-11-10T05:36:14.348Z,96.89
2022-11-10T05:37:14.332Z,97.09
2022-11-10T05:38:14.308Z,96.89
2022-11-10T05:39:14.298Z,96.99
2022-11-10T05:40:14.287Z,96.99
2022-11-10T05:41:14.302Z,97.09
2022-11-10T05:42:14.267Z,97.09
2022-11-10T05:43:14.258Z,97.30
2022-11-10T05:44:14.239Z,96.89
2022-11-10T05:45:14.236Z,96.58
2022-11-10T05:46:14.217Z,96.69
2022-11-10T05:47:14.249Z,96.79
2022-11-10T05:48:14.197Z,96.69
2022-11-10T05:49:14.188Z,96.79
2022-11-10T05:50:14.175Z,96.58
2022-11-10T05:51:14.167Z,97.45
2022-11-10T05:52:14.147Z,97.55
2022-11-10T05:53:14.168Z,97.55
2022-11-10T05:54:14.128Z,97.65
2022-11-10T05:55:14.117Z,97.45
2022-11-10T05:56:14.114Z,97.86
2022-11-10T05:57:14.098Z,97.65
2022-11-10T05:58:14.088Z,97.20
2022-11-10T05:59:14.099Z,96.63
2022-11-10T06:00:14.067Z,97.04
2022-11-10T06:01:14.069Z,97.14
2022-11-10T06:02:14.048Z,96.94
2022-11-10T06:03:14.075Z,97.39
2022-11-10T06:04:14.018Z,97.19
2022-11-10T06:05:14.037Z,97.60
2022-11-10T06:06:13.995Z,97.91
2022-11-10T06:07:14.032Z,98.42
2022-11-10T06:08:13.975Z,98.42
2022-11-10T06:09:13.967Z,97.70
2022-11-10T06:10:13.947Z,97.91
2022-11-10T06:11:13.983Z,97.80
2022-11-10T06:12:13.934Z,98.05
2022-11-10T06:13:13.918Z,98.05
2022-11-10T06:14:13.907Z,97.44
2022-11-10T06:15:13.895Z,97.13
2022-11-10T06:16:13.886Z,97.85
2022-11-10T06:17:13.887Z,97.64
2022-11-10T06:18:13.866Z,97.74
2022-11-10T06:19:13.885Z,97.95
2022-11-10T06:20:13.851Z,97.44
2022-11-10T06:21:13.825Z,97.54
2022-11-10T06:22:13.836Z,97.74
2022-11-10T06:23:13.856Z,98.36
2022-11-10T06:24:13.796Z,98.36
2022-11-10T06:25:13.776Z,98.05
2022-11-10T06:26:13.767Z,98.16
2022-11-10T06:27:22.556Z,97.74
2022-11-10T06:28:13.755Z,97.54
2022-11-10T06:29:15.189Z,97.64
2022-11-10T06:30:13.731Z,97.54
2022-11-10T06:31:13.715Z,97.39
2022-11-10T06:32:13.712Z,97.23
2022-11-10T06:33:13.716Z,97.64
2022-11-10T06:34:13.686Z,98.25
2022-11-10T06:35:13.667Z,97.64
2022-11-10T06:36:13.655Z,98.16
2022-11-10T06:37:13.646Z,98.36
2022-11-10T06:38:13.639Z,98.57
2022-11-10T06:39:13.636Z,98.77
2022-11-10T06:40:13.613Z,99.18
2022-11-10T06:41:13.603Z,99.08
2022-11-10T06:42:13.596Z,99.08
2022-11-10T06:43:13.576Z,98.87
2022-11-10T06:44:13.655Z,98.87
2022-11-10T06:45:13.556Z,98.46
2022-11-10T06:46:13.543Z,98.16
2022-11-10T06:47:13.545Z,98.25
2022-11-10T06:48:13.530Z,98.25
2022-11-10T06:49:13.506Z,98.05
2022-11-10T06:50:13.520Z,97.85
2022-11-10T06:51:13.498Z,98.36
2022-11-10T06:52:13.484Z,98.36
2022-11-10T06:53:13.466Z,98.67
2022-11-10T06:54:13.456Z,99.08
2022-11-10T06:55:13.732Z,99.54
2022-11-10T06:56:13.444Z,99.59
2022-11-10T06:57:13.426Z,99.69
2022-11-10T06:58:13.755Z,99.28
2022-11-10T06:59:13.397Z,98.97
2022-11-10T07:00:13.394Z,98.77
2022-11-10T07:01:16.565Z,98.46
2022-11-10T07:02:14.495Z,98.16
2022-11-10T07:03:13.356Z,97.85
2022-11-10T07:04:19.775Z,98.46
2022-11-10T07:05:14.344Z,98.57
2022-11-10T07:06:13.344Z,98.87
2022-11-10T07:07:13.740Z,98.87
2022-11-10T07:08:13.933Z,98.77
2022-11-10T07:09:13.416Z,98.72
2022-11-10T07:10:13.945Z,98.11
2022-11-10T07:11:13.270Z,97.91
2022-11-10T07:12:13.283Z,98.07
2022-11-10T07:13:13.242Z,97.86
2022-11-10T07:14:13.996Z,97.55
2022-11-10T07:15:13.214Z,97.14
2022-11-10T07:16:13.204Z,97.20
2022-11-10T07:17:13.892Z,96.89
2022-11-10T07:18:13.384Z,96.54
2022-11-10T07:19:13.287Z,96.23
2022-11-10T07:20:13.926Z,95.72
2022-11-10T07:21:14.533Z,96.13
2022-11-10T07:22:13.148Z,96.23
2022-11-10T07:23:13.143Z,95.98
2022-11-10T07:24:13.225Z,95.17
2022-11-10T07:25:13.106Z,95.37
2022-11-10T07:26:13.235Z,95.32
2022-11-10T07:27:13.085Z,94.92
2022-11-10T07:28:13.266Z,93.95
2022-11-10T07:29:13.364Z,93.33
2022-11-10T07:30:13.365Z,93.13
2022-11-10T07:31:13.475Z,93.33
2022-11-10T07:32:13.484Z,92.93
2022-11-10T07:33:13.013Z,93.44
2022-11-10T07:34:13.494Z,93.13
2022-11-10T07:35:13.019Z,92.37
2022-11-10T07:36:13.013Z,91.96
2022-11-10T07:37:12.980Z,92.02
2022-11-10T07:38:12.979Z,91.78
2022-11-10T07:39:13.134Z,90.81
2022-11-10T07:40:12.953Z,89.18
2022-11-10T07:41:13.142Z,88.39
2022-11-10T07:42:12.915Z,86.08
2022-11-10T07:43:13.264Z,86.63
2022-11-10T07:44:12.895Z,87.24
2022-11-10T07:45:12.903Z,87.65
2022-11-10T07:46:13.274Z,87.10
2022-11-10T07:47:13.395Z,87.79
2022-11-10T07:48:12.853Z,89.06
2022-11-10T07:49:12.835Z,90.99
2022-11-10T07:50:12.825Z,91.86
2022-11-10T07:51:12.834Z,92.42
2022-11-10T07:52:13.525Z,92.83
2022-11-10T07:53:12.796Z,93.99
2022-11-10T07:54:12.783Z,94.20
2022-11-10T07:55:12.764Z,94.36
2022-11-10T07:56:13.534Z,93.44
2022-11-10T07:57:12.773Z,94.40
2022-11-10T07:58:12.744Z,94.26
2022-11-10T07:59:12.723Z,94.15
2022-11-10T08:00:12.722Z,94.71
2022-11-10T08:01:12.747Z,94.87
2022-11-10T08:02:13.472Z,95.32
2022-11-10T08:03:13.443Z,95.73
2022-11-10T08:04:13.434Z,95.07
2022-11-10T08:05:13.413Z,95.03
2022-11-10T08:06:13.491Z,94.01
2022-11-10T08:07:12.731Z,94.06
2022-11-10T08:08:12.653Z,94.97
2022-11-10T08:09:12.626Z,94.97
2022-11-10T08:10:12.606Z,95.03
2022-11-10T08:11:12.594Z,94.73
2022-11-10T08:12:12.577Z,94.17
2022-11-10T08:13:12.584Z,93.86
2022-11-10T08:14:12.575Z,93.66
2022-11-10T08:15:12.545Z,94.48
2022-11-10T08:16:12.533Z,94.17
2022-11-10T08:17:12.885Z,93.31
2022-11-10T08:18:12.513Z,92.65
2022-11-10T08:19:12.894Z,91.22
2022-11-10T08:20:13.005Z,91.49
2022-11-10T08:21:13.016Z,90.36
2022-11-10T08:22:13.041Z,90.67
2022-11-10T08:23:13.024Z,89.83
2022-11-10T08:24:12.444Z,86.94
2022-11-10T08:25:12.444Z,84.38
2022-11-10T08:26:12.543Z,81.05
2022-11-10T08:27:12.407Z,78.91
2022-11-10T08:28:12.404Z,78.71
2022-11-10T08:29:12.383Z,79.16
2022-11-10T08:30:12.444Z,79.32
2022-11-10T08:31:12.362Z,78.81
2022-11-10T08:32:12.357Z,78.55
2022-11-10T08:33:12.345Z,78.41
2022-11-10T08:34:12.334Z,78.81
2022-11-10T08:35:12.316Z,77.45
2022-11-10T08:36:12.915Z,76.10
2022-11-10T08:37:12.304Z,76.37
2022-11-10T08:38:12.287Z,75.46
2022-11-10T08:39:13.317Z,73.46
2022-11-10T08:40:13.664Z,73.83
2022-11-10T08:41:12.258Z,72.11
2022-11-10T08:42:12.774Z,71.97
2022-11-10T08:43:12.227Z,72.21
2022-11-10T08:44:13.549Z,72.11
2022-11-10T08:45:12.204Z,73.29
2022-11-10T08:46:12.198Z,73.36
2022-11-10T08:47:12.776Z,73.29
2022-11-10T08:48:12.201Z,71.70
2022-11-10T08:49:12.171Z,73.60
2022-11-10T08:50:12.917Z,73.36
2022-11-10T08:51:12.905Z,72.81
2022-11-10T08:52:12.896Z,72.58
2022-11-10T08:53:12.885Z,71.91
2022-11-10T08:54:12.106Z,70.52
2022-11-10T08:55:12.125Z,71.57
2022-11-10T08:56:12.089Z,71.50
2022-11-10T08:57:12.075Z,72.61
2022-11-10T08:58:12.054Z,72.21
2022-11-10T08:59:12.260Z,73.43
2022-11-10T09:00:12.035Z,73.02
2022-11-10T09:01:12.295Z,72.48
2022-11-10T09:02:12.028Z,72.61
2022-11-10T09:03:12.391Z,70.29
2022-11-10T09:04:12.080Z,70.69
2022-11-10T09:05:12.405Z,69.65
2022-11-10T09:06:12.514Z,69.62
2022-11-10T09:07:12.565Z,69.98
2022-11-10T09:08:11.947Z,69.28
2022-11-10T09:09:11.935Z,69.04
2022-11-10T09:10:12.682Z,69.45
2022-11-10T09:11:11.924Z,69.14
2022-11-10T09:12:11.898Z,70.42
2022-11-10T09:13:11.886Z,68.47
2022-11-10T09:14:11.877Z,68.27
2022-11-10T09:15:12.166Z,68.94
2022-11-10T09:16:12.177Z,70.62
2022-11-10T09:17:11.846Z,71.64
2022-11-10T09:18:11.840Z,72.04
2022-11-10T09:19:21.636Z,71.91
2022-11-10T09:20:12.906Z,73.83
2022-11-10T09:21:12.312Z,74.98
2022-11-10T09:22:12.317Z,77.05
2022-11-10T09:23:11.776Z,77.25
2022-11-10T09:24:11.768Z,77.45
2022-11-10T09:25:11.768Z,78.24
2022-11-10T09:26:12.279Z,80.47
2022-11-10T09:27:11.730Z,80.84
2022-11-10T09:28:11.738Z,81.05
2022-11-10T09:29:11.707Z,79.63
2022-11-10T09:30:16.354Z,80.84
2022-11-10T09:31:13.269Z,81.62
2022-11-10T09:32:11.678Z,79.66
2022-11-10T09:33:12.202Z,80.78
2022-11-10T09:34:11.649Z,81.15
2022-11-10T09:35:11.639Z,81.21
2022-11-10T09:36:11.639Z,80.13
2022-11-10T09:37:12.390Z,80.44
2022-11-10T09:38:12.817Z,81.52
2022-11-10T09:39:12.358Z,79.35
2022-11-10T09:40:13.018Z,78.47
2022-11-10T09:41:11.628Z,78.78
2022-11-10T09:42:11.568Z,78.64
2022-11-10T09:43:11.557Z,79.28
2022-11-10T09:44:11.551Z,78.88
2022-11-10T09:45:11.760Z,78.88
2022-11-10T09:46:11.518Z,78.53
2022-11-10T09:47:12.468Z,79.69
2022-11-10T09:48:11.502Z,78.94
2022-11-10T09:49:11.483Z,78.64
2022-11-10T09:50:11.497Z,78.33
2022-11-10T09:51:11.599Z,77.83
2022-11-10T09:52:11.999Z,78.06
2022-11-10T09:53:12.032Z,78.53
2022-11-10T09:54:12.071Z,77.62
2022-11-10T09:55:11.420Z,78.13
2022-11-10T09:56:11.439Z,77.42
2022-11-10T09:57:11.389Z,77.83
2022-11-10T09:58:11.387Z,77.83
2022-11-10T09:59:11.378Z,77.62
2022-11-10T10:00:11.552Z,78.03
2022-11-10T10:01:11.391Z,78.03
2022-11-10T10:02:11.369Z,77.52
2022-11-10T10:03:11.332Z,77.42
2022-11-10T10:04:11.329Z,78.78
2022-11-10T10:05:11.299Z,78.84
2022-11-10T10:06:11.310Z,78.64
2022-11-10T10:07:11.957Z,77.79
2022-11-10T10:08:11.298Z,76.98
2022-11-10T10:09:11.695Z,77.32
2022-11-10T10:10:16.991Z,77.93
2022-11-10T10:11:12.231Z,78.13
2022-11-10T10:12:11.745Z,78.67
2022-11-10T10:13:11.222Z,78.74
2022-11-10T10:14:11.220Z,79.04
2022-11-10T10:15:11.964Z,78.74
2022-11-10T10:16:11.180Z,78.44
2022-11-10T10:17:11.189Z,78.60
2022-11-10T10:18:11.162Z,77.48
2022-11-10T10:19:12.170Z,77.14
2022-11-10T10:20:11.149Z,77.25
2022-11-10T10:21:11.891Z,77.04
2022-11-10T10:22:11.878Z,76.64
2022-11-10T10:23:11.101Z,76.70
2022-11-10T10:24:15.245Z,76.33
2022-11-10T10:25:12.092Z,76.23
2022-11-10T10:26:11.071Z,76.09
2022-11-10T10:27:11.061Z,75.89
2022-11-10T10:28:11.050Z,75.89
2022-11-10T10:29:11.281Z,75.49
2022-11-10T10:30:11.311Z,75.18
2022-11-10T10:31:11.011Z,75.18
2022-11-10T10:32:11.000Z,75.18
2022-11-10T10:33:10.990Z,75.59
2022-11-10T10:34:11.459Z,75.59
2022-11-10T10:35:10.971Z,75.65
2022-11-10T10:36:10.981Z,75.59
2022-11-10T10:37:11.563Z,75.85
2022-11-10T10:38:11.591Z,75.65
2022-11-10T10:39:11.632Z,75.15
2022-11-10T10:40:10.934Z,74.95
2022-11-10T10:41:10.902Z,74.88
2022-11-10T10:42:10.902Z,75.45
2022-11-10T10:43:10.881Z,75.04
2022-11-10T10:44:10.872Z,74.64
2022-11-10T10:45:10.941Z,74.64
2022-11-10T10:46:10.842Z,74.74
2022-11-10T10:47:10.863Z,75.32
2022-11-10T10:48:10.822Z,76.13
2022-11-10T10:49:29.191Z,76.33
2022-11-10T10:50:11.801Z,76.74
2022-11-10T10:51:10.791Z,76.33
2022-11-10T10:52:11.273Z,76.94
2022-11-10T10:53:10.797Z,77.69
2022-11-10T10:54:10.751Z,77.89
2022-11-10T10:55:10.743Z,77.55
2022-11-10T10:56:10.734Z,77.34
2022-11-10T10:57:10.723Z,76.94
2022-11-10T10:58:10.712Z,77.69
2022-11-10T10:59:10.722Z,77.65
2022-11-10T11:00:10.684Z,77.34
2022-11-10T11:01:10.734Z,77.31
2022-11-10T11:02:10.675Z,76.06
2022-11-10T11:03:11.443Z,75.65
2022-11-10T11:04:11.408Z,75.65
2022-11-10T11:05:11.072Z,75.45
2022-11-10T11:06:10.623Z,75.25
2022-11-10T11:07:10.679Z,75.45
2022-11-10T11:08:10.602Z,74.95
2022-11-10T11:09:10.591Z,74.74
2022-11-10T11:10:10.573Z,75.49
2022-11-10T11:11:10.602Z,75.99
2022-11-10T11:12:10.558Z,75.38
2022-11-10T11:13:10.543Z,76.23
2022-11-10T11:14:10.533Z,76.27
2022-11-10T11:15:10.524Z,76.87
2022-11-10T11:16:10.504Z,76.84
2022-11-10T11:17:10.615Z,76.33
2022-11-10T11:18:10.494Z,76.09
2022-11-10T11:19:10.473Z,75.59
2022-11-10T11:20:10.465Z,75.55
2022-11-10T11:21:10.451Z,74.95
2022-11-10T11:22:10.435Z,74.84
2022-11-10T11:23:10.455Z,74.64
2022-11-10T11:24:10.423Z,74.88
2022-11-10T11:25:10.428Z,75.28
2022-11-10T11:26:10.397Z,75.25
2022-11-10T11:27:10.403Z,74.74
2022-11-10T11:28:10.376Z,75.15
2022-11-10T11:29:10.405Z,74.60
2022-11-10T11:30:10.353Z,74.40
2022-11-10T11:31:10.343Z,74.74
2022-11-10T11:32:10.341Z,75.01
2022-11-10T11:33:10.325Z,74.60
2022-11-10T11:34:10.335Z,74.10
2022-11-10T11:35:10.304Z,74.20
2022-11-10T11:36:10.283Z,73.69
2022-11-10T11:37:14.082Z,73.69
2022-11-10T11:38:11.254Z,73.69
2022-11-10T11:39:10.255Z,73.83
2022-11-10T11:40:10.258Z,73.69
2022-11-10T11:41:10.234Z,73.90
2022-11-10T11:42:10.217Z,73.69
2022-11-10T11:43:10.203Z,73.36
2022-11-10T11:44:10.195Z,72.72
2022-11-10T11:45:10.184Z,72.61
2022-11-10T11:46:11.667Z,72.51
2022-11-10T11:47:10.162Z,72.11
2022-11-10T11:48:10.155Z,71.64
2022-11-10T11:49:10.144Z,71.64
2022-11-10T11:50:10.124Z,72.14
2022-11-10T11:51:10.144Z,71.94
2022-11-10T11:52:10.120Z,71.70
2022-11-10T11:53:10.096Z,71.40
2022-11-10T11:54:10.088Z,72.01
2022-11-10T11:55:10.075Z,71.37
2022-11-10T11:56:10.085Z,70.86
2022-11-10T11:57:10.075Z,70.56
2022-11-10T11:58:10.037Z,70.96
2022-11-10T11:59:10.035Z,70.36
2022-11-10T12:00:10.044Z,71.13
2022-11-10T12:01:10.006Z,72.41
2022-11-10T12:02:10.080Z,72.92
2022-11-10T12:03:10.034Z,72.88
2022-11-10T12:04:09.975Z,73.12
2022-11-10T12:05:09.975Z,72.78
2022-11-10T12:06:09.945Z,73.22
2022-11-10T12:07:09.980Z,73.29
2022-11-10T12:08:09.927Z,73.43
2022-11-10T12:09:09.945Z,74.24
2022-11-10T12:10:09.916Z,74.04
2022-11-10T12:11:09.894Z,73.83
2022-11-10T12:12:09.875Z,73.59
2022-11-10T12:13:09.866Z,73.05
2022-11-10T12:14:09.853Z,72.88
2022-11-10T12:15:09.866Z,72.88
2022-11-10T12:16:09.841Z,72.44
2022-11-10T12:17:09.825Z,71.94
2022-11-10T12:18:09.812Z,71.53
2022-11-10T12:19:09.805Z,72.04
2022-11-10T12:20:09.815Z,71.84
2022-11-10T12:21:09.775Z,71.70
2022-11-10T12:22:09.764Z,71.57
2022-11-10T12:23:09.755Z,71.26
2022-11-10T12:24:10.622Z,71.06
2022-11-10T12:25:09.737Z,71.17
2022-11-10T12:26:09.738Z,70.76
2022-11-10T12:27:09.713Z,70.86
2022-11-10T12:28:17.259Z,70.56
2022-11-10T12:29:10.269Z,70.79
2022-11-10T12:30:09.673Z,71.17
2022-11-10T12:31:09.718Z,71.33
2022-11-10T12:32:09.657Z,72.24
2022-11-10T12:33:09.686Z,71.30
2022-11-10T12:34:09.628Z,70.86
2022-11-10T12:35:09.640Z,71.17
2022-11-10T12:36:09.608Z,70.46
2022-11-10T12:37:09.672Z,70.56
2022-11-10T12:38:09.590Z,70.36
2022-11-10T12:39:09.580Z,69.95
2022-11-10T12:40:09.565Z,70.56
2022-11-10T12:41:09.552Z,70.62
2022-11-10T12:42:09.540Z,70.22
2022-11-10T12:43:09.560Z,70.36
2022-11-10T12:44:09.519Z,70.36
2022-11-10T12:45:09.514Z,71.20
2022-11-10T12:46:09.492Z,71.30
2022-11-10T12:47:09.490Z,70.79
2022-11-10T12:48:09.469Z,71.26
2022-11-10T12:49:09.482Z,71.06
2022-11-10T12:50:09.450Z,70.69
2022-11-10T12:51:09.439Z,71.00
2022-11-10T12:52:09.427Z,71.33